Flugplatz Segelflugplatz Unterwössen (UL)

Hier findest Du alle Informationen zum Flugplatz Segelflugplatz Unterwössen (UL).

Informationen für Piloten zum Flugplatz Segelflugplatz Unterwössen

Hier findest Du alle relevanten Informationen, die Du als Pilot benötigst, um Segelflugplatz Unterwössen anzufliegen.

Flugplatz: Segelflugplatz Unterwössen ICAO-Code: UL Flugplatz
Frequenz Turm: 122,3 Mhz GAFOR Gebiet: -
Frequenz Ground: 122,3 Mhz Mogas: nein
Platzrunde: N 3000 ft Landegebühr: -
Platzhöhe: Sunrise: 04:58 Uhr UTC
Pisten: 06/24 - 600 m x 40 m, Sunset: 17:06 Uhr UTC

Flugwetter am Flugplatz Segelflugplatz Unterwössen

Die METAR Information stammen aus EDDM (84.49 km entfernt).

METAR Code:
2022/09/23 13:20
EDDM 231320Z AUTO 26003KT 200V310 CAVOK 17/07 Q1017 BECMG 33005KT

Flugschulen am Flugplatz Segelflugplatz Unterwössen

Am Flugplatz Segelflugplatz Unterwössen gibt es leider keine Flugschule.

Benachbarte Flugplätze und Flugschulen

Es gibt 8 weitere Flugplätze in einem Umkreis von 50 km um den Flugplatz Segelflugplatz Unterwössen.

Jetzt anmelden

Passwort vergessen

Umfrage Archiv

Sendet Ihr ADS-B und/oder FLARM?

Ja
83.7 %
Nein
16.3 %
Stimmen: 221 | Diskussion
Anzeige: Roland Aircraft
Statistik Alle Mitglieder

Aktuell sind 36 Besucher online.

Anzeige: ULPower Aero Engines Anzeige: Pocket FMS